Frazier Park, California
Current Conditions -  °F | °C
As of 5:48 PM on Tuesday 25 Nov 2014 (Local Time) from KSDB Reporting Station
Clear Clear  
Wind Chill: 59°   Ceiling: Unl
Heat Index: 59°   Visibility: 10mi
Dew Point: -1°   Wind: 20mph
Humidity: 9%   Direction: 340°NNW
Pressure: 30.43"   Gusts: NA
Location:  34.82°N, 118.95°W
Report Text: KSDB 260148Z AUTO 34017KT 10SM CLR 15/M18 A3043 RMK AO2 PK WND 33027/0110 SLP274 T01501183
Loading
Personal Weather Stations






























Interactive Weather Map New forecast layout! Learn more

10-Day Weather Forecast

Advertisements
Track Severe Weather on mobile